createdAt,value
2018-06-15T00:00:28.022Z,14.90
2018-06-15T00:03:01.445Z,14.90
2018-06-15T00:05:29.828Z,14.80
2018-06-15T00:07:58.245Z,14.70
2018-06-15T00:10:26.743Z,14.70
2018-06-15T00:12:55.146Z,14.60
2018-06-15T00:15:24.177Z,14.60
2018-06-15T00:17:52.567Z,14.60
2018-06-15T00:20:21.023Z,14.50
2018-06-15T00:22:49.397Z,14.40
2018-06-15T00:25:17.855Z,14.40
2018-06-15T00:27:46.229Z,14.20
2018-06-15T00:30:14.591Z,14.10
2018-06-15T00:32:43.162Z,14.10
2018-06-15T00:35:11.568Z,14.00
2018-06-15T00:37:39.945Z,13.90
2018-06-15T00:40:08.338Z,13.80
2018-06-15T00:42:36.696Z,13.70
2018-06-15T00:45:05.065Z,13.70
2018-06-15T00:47:33.431Z,13.70
2018-06-15T00:52:30.022Z,13.50
2018-06-15T00:54:58.432Z,13.50
2018-06-15T00:57:38.271Z,13.50
2018-06-15T01:00:06.646Z,13.50
2018-06-15T01:02:35.023Z,13.50
2018-06-15T01:05:03.472Z,13.40
2018-06-15T01:07:31.922Z,13.30
2018-06-15T01:10:00.331Z,13.20
2018-06-15T01:12:28.795Z,13.20
2018-06-15T01:14:57.156Z,13.30
2018-06-15T01:17:25.631Z,13.30
2018-06-15T01:19:54.783Z,13.40
2018-06-15T01:22:23.280Z,13.50
2018-06-15T01:24:51.732Z,13.70
2018-06-15T01:27:20.123Z,13.80
2018-06-15T01:29:48.485Z,13.70
2018-06-15T01:32:16.875Z,13.60
2018-06-15T01:34:45.291Z,13.60
2018-06-15T01:37:13.676Z,13.50
2018-06-15T01:39:42.027Z,13.50
2018-06-15T01:42:10.474Z,13.50
2018-06-15T01:44:38.962Z,13.40
2018-06-15T01:47:07.384Z,13.30
2018-06-15T01:49:36.350Z,13.20
2018-06-15T01:52:04.775Z,13.10
2018-06-15T01:54:33.150Z,13.20
2018-06-15T01:57:01.526Z,13.20
2018-06-15T01:59:30.044Z,13.30
2018-06-15T02:01:58.484Z,13.30
2018-06-15T02:04:26.878Z,13.30
2018-06-15T02:06:55.392Z,13.20
2018-06-15T02:09:23.813Z,13.10
2018-06-15T02:11:52.186Z,12.90
2018-06-15T02:14:20.684Z,12.90
2018-06-15T02:16:49.144Z,13.00
2018-06-15T02:19:17.567Z,13.10
2018-06-15T02:21:45.950Z,13.20
2018-06-15T02:24:14.397Z,13.30
2018-06-15T02:26:42.794Z,13.50
2018-06-15T02:29:11.194Z,13.60
2018-06-15T02:31:39.667Z,13.80
2018-06-15T02:34:08.050Z,13.90
2018-06-15T02:36:36.423Z,13.90
2018-06-15T02:39:07.542Z,14.00
2018-06-15T02:41:35.929Z,14.10
2018-06-15T02:44:05.210Z,14.20
2018-06-15T02:46:33.615Z,14.30
2018-06-15T02:49:02.066Z,14.40
2018-06-15T02:51:30.479Z,14.50
2018-06-15T02:53:58.836Z,14.60
2018-06-15T02:56:27.281Z,14.70
2018-06-15T02:58:55.698Z,14.80
2018-06-15T03:01:24.099Z,14.80
2018-06-15T03:03:52.687Z,14.90
2018-06-15T03:06:21.060Z,15.00
2018-06-15T03:08:50.337Z,15.00
2018-06-15T03:11:18.730Z,14.90
2018-06-15T03:13:47.161Z,14.90
2018-06-15T03:16:15.623Z,14.90
2018-06-15T03:18:43.971Z,14.80
2018-06-15T03:21:12.391Z,14.70
2018-06-15T03:23:40.862Z,14.60
2018-06-15T03:26:09.258Z,14.40
2018-06-15T03:28:37.627Z,14.30
2018-06-15T03:31:06.198Z,14.20
2018-06-15T03:33:34.559Z,14.20
2018-06-15T03:38:31.041Z,14.20
2018-06-15T03:40:59.484Z,14.30
2018-06-15T03:43:27.897Z,14.40
2018-06-15T03:45:56.271Z,14.40
2018-06-15T03:48:24.644Z,14.50
2018-06-15T03:50:53.009Z,14.50
2018-06-15T03:53:21.587Z,14.50
2018-06-15T03:55:50.021Z,14.60
2018-06-15T03:58:18.394Z,14.60
2018-06-15T04:00:46.792Z,14.80
2018-06-15T04:03:15.185Z,14.90
2018-06-15T04:05:43.600Z,15.00
2018-06-15T04:08:11.976Z,15.10
2018-06-15T04:10:40.371Z,15.20
2018-06-15T04:13:08.868Z,15.30
2018-06-15T04:15:37.237Z,15.40
2018-06-15T04:18:08.931Z,15.50
2018-06-15T04:20:38.604Z,15.60
2018-06-15T04:23:07.321Z,15.80
2018-06-15T04:25:35.744Z,15.90
2018-06-15T04:28:04.163Z,16.00
2018-06-15T04:30:32.573Z,16.10
2018-06-15T04:33:01.874Z,16.30
2018-06-15T04:35:30.272Z,16.40
2018-06-15T04:37:58.705Z,16.50
2018-06-15T04:40:27.419Z,16.70
2018-06-15T04:42:55.835Z,16.80
2018-06-15T04:47:52.467Z,17.00
2018-06-15T04:50:20.902Z,17.10
2018-06-15T04:52:49.274Z,17.20
2018-06-15T04:55:18.289Z,17.30
2018-06-15T04:57:46.727Z,17.40
2018-06-15T05:00:15.070Z,17.50
2018-06-15T05:02:43.486Z,17.60
2018-06-15T05:05:11.863Z,17.70
2018-06-15T05:07:40.277Z,17.80
2018-06-15T05:10:08.687Z,17.90
2018-06-15T05:12:37.208Z,18.10
2018-06-15T05:15:05.633Z,18.20
2018-06-15T05:17:34.060Z,18.40
2018-06-15T05:20:02.461Z,18.50
2018-06-15T05:22:30.918Z,18.70
2018-06-15T05:24:59.266Z,18.90
2018-06-15T05:27:27.721Z,19.10
2018-06-15T05:29:56.100Z,19.30
2018-06-15T05:32:24.502Z,19.50
2018-06-15T05:34:52.861Z,19.70
2018-06-15T05:37:21.323Z,19.80
2018-06-15T05:39:49.745Z,20.10
2018-06-15T05:42:18.135Z,20.50
2018-06-15T05:44:46.515Z,20.90
2018-06-15T05:47:14.880Z,21.30
2018-06-15T05:49:43.597Z,21.50
2018-06-15T05:52:12.045Z,21.60
2018-06-15T05:54:40.541Z,22.00
2018-06-15T05:57:08.915Z,23.40
2018-06-15T05:59:37.290Z,24.30
2018-06-15T06:02:05.727Z,24.50
2018-06-15T06:04:34.094Z,24.60
2018-06-15T06:07:02.494Z,24.50
2018-06-15T06:09:30.894Z,24.50
2018-06-15T06:11:59.289Z,24.80
2018-06-15T06:14:27.667Z,26.70
2018-06-15T06:16:56.085Z,28.80
2018-06-15T06:19:24.443Z,30.30
2018-06-15T06:21:52.805Z,31.50
2018-06-15T06:24:21.153Z,32.20
2018-06-15T06:26:49.557Z,31.50
2018-06-15T06:29:17.975Z,30.70
2018-06-15T06:31:46.373Z,30.30
2018-06-15T06:34:14.739Z,29.40
2018-06-15T06:36:43.143Z,28.30
2018-06-15T06:39:12.581Z,27.50
2018-06-15T06:41:40.945Z,27.20
2018-06-15T06:44:09.943Z,26.90
2018-06-15T06:46:38.323Z,27.60
2018-06-15T06:49:06.731Z,28.10
2018-06-15T06:51:35.112Z,29.70
2018-06-15T06:54:03.453Z,31.60
2018-06-15T06:56:31.815Z,32.50
2018-06-15T06:59:00.182Z,32.40
2018-06-15T07:01:28.538Z,31.40
2018-06-15T07:03:56.993Z,30.40
2018-06-15T07:06:25.385Z,29.70
2018-06-15T07:08:53.822Z,29.10
2018-06-15T07:11:22.185Z,28.80
2018-06-15T07:13:50.540Z,28.70
2018-06-15T07:16:18.967Z,28.60
2018-06-15T07:18:47.332Z,29.60
2018-06-15T07:21:15.684Z,32.20
2018-06-15T07:23:44.101Z,34.80
2018-06-15T07:26:12.461Z,37.00
2018-06-15T07:28:40.820Z,37.80
2018-06-15T07:31:09.197Z,39.50
2018-06-15T07:33:37.926Z,40.80
2018-06-15T07:36:06.330Z,40.00
2018-06-15T07:38:34.678Z,38.50
2018-06-15T07:41:03.076Z,38.10
2018-06-15T07:43:31.442Z,39.80
2018-06-15T07:45:59.937Z,41.50
2018-06-15T07:48:28.293Z,40.90
2018-06-15T07:50:56.649Z,39.50
2018-06-15T07:53:25.182Z,38.20
2018-06-15T07:55:53.581Z,37.40
2018-06-15T07:58:21.975Z,35.90
2018-06-15T08:00:50.377Z,34.80
2018-06-15T08:03:18.763Z,34.00
2018-06-15T08:08:15.233Z,33.90
2018-06-15T08:10:43.628Z,33.70
2018-06-15T08:13:12.017Z,33.30
2018-06-15T08:15:40.465Z,33.00
2018-06-15T08:20:37.020Z,32.10
2018-06-15T08:23:05.514Z,31.90
2018-06-15T08:25:33.891Z,31.40
2018-06-15T08:28:02.245Z,30.50
2018-06-15T08:30:30.595Z,29.50
2018-06-15T08:32:58.997Z,28.80
2018-06-15T08:35:27.389Z,28.10
2018-06-15T08:37:55.849Z,27.60
2018-06-15T08:40:24.237Z,27.40
2018-06-15T08:42:52.645Z,27.40
2018-06-15T08:45:21.006Z,27.50
2018-06-15T08:47:49.452Z,27.50
2018-06-15T08:50:17.847Z,27.40
2018-06-15T08:55:14.314Z,27.60
2018-06-15T08:57:43.015Z,27.70
2018-06-15T09:00:11.468Z,28.40
2018-06-15T09:02:39.944Z,29.60
2018-06-15T09:05:08.353Z,30.90
2018-06-15T09:07:36.825Z,31.90
2018-06-15T09:10:05.211Z,32.40
2018-06-15T09:15:01.705Z,33.10
2018-06-15T09:17:30.078Z,33.60
2018-06-15T09:19:58.425Z,33.90
2018-06-15T09:22:26.803Z,34.20
2018-06-15T09:24:55.176Z,34.30
2018-06-15T09:27:24.006Z,34.50
2018-06-15T09:29:52.541Z,34.50
2018-06-15T09:32:20.907Z,34.30
2018-06-15T09:34:49.293Z,33.90
2018-06-15T09:37:17.757Z,33.60
2018-06-15T09:39:46.141Z,33.40
2018-06-15T09:42:14.512Z,33.30
2018-06-15T09:44:42.888Z,33.00
2018-06-15T09:47:11.298Z,32.80
2018-06-15T09:49:39.646Z,32.60
2018-06-15T09:57:04.169Z,33.00
2018-06-15T09:59:32.570Z,33.20
2018-06-15T10:02:00.942Z,33.20
2018-06-15T10:04:29.323Z,33.20
2018-06-15T10:09:25.781Z,33.50
2018-06-15T10:11:54.222Z,33.70
2018-06-15T10:14:22.595Z,33.90
2018-06-15T10:16:51.020Z,34.00
2018-06-15T10:19:19.387Z,34.30
2018-06-15T10:21:47.796Z,34.60
2018-06-15T10:24:16.207Z,34.70
2018-06-15T10:26:44.855Z,34.50
2018-06-15T10:29:13.305Z,34.70
2018-06-15T10:31:41.711Z,34.70
2018-06-15T10:34:10.137Z,34.70
2018-06-15T10:36:38.607Z,34.70
2018-06-15T10:39:08.501Z,34.70
2018-06-15T10:41:36.914Z,34.80
2018-06-15T10:44:05.334Z,35.20
2018-06-15T10:46:33.719Z,35.30
2018-06-15T10:49:08.813Z,35.10
2018-06-15T10:54:05.314Z,34.50
2018-06-15T10:56:34.527Z,34.60
2018-06-15T10:59:02.913Z,34.70
2018-06-15T11:01:31.479Z,35.00
2018-06-15T11:03:59.824Z,35.50
2018-06-15T11:06:28.298Z,35.90
2018-06-15T11:08:56.713Z,36.40
2018-06-15T11:11:25.070Z,36.90
2018-06-15T11:13:53.503Z,36.90
2018-06-15T11:16:21.895Z,36.20
2018-06-15T11:18:50.243Z,35.60
2018-06-15T11:21:18.627Z,34.80
2018-06-15T11:23:47.043Z,34.00
2018-06-15T11:26:15.433Z,33.20
2018-06-15T11:28:43.794Z,32.40
2018-06-15T11:31:12.211Z,32.10
2018-06-15T11:33:40.956Z,31.40
2018-06-15T11:36:09.321Z,30.60
2018-06-15T11:38:37.677Z,30.00
2018-06-15T11:41:06.100Z,29.70
2018-06-15T11:43:34.425Z,29.90
2018-06-15T11:46:02.765Z,31.00
2018-06-15T11:50:59.185Z,32.60
2018-06-15T11:53:28.531Z,33.10
2018-06-15T11:55:56.895Z,33.40
2018-06-15T11:58:25.280Z,33.00
2018-06-15T12:00:53.606Z,32.60
2018-06-15T12:03:21.965Z,32.10
2018-06-15T12:08:18.461Z,30.50
2018-06-15T12:10:46.927Z,30.00
2018-06-15T12:13:15.311Z,29.60
2018-06-15T12:15:43.683Z,29.00
2018-06-15T12:18:12.045Z,28.30
2018-06-15T12:20:40.465Z,27.90
2018-06-15T12:23:08.877Z,28.10
2018-06-15T12:25:37.271Z,29.50
2018-06-15T12:28:05.641Z,30.70
2018-06-15T12:30:34.072Z,31.70
2018-06-15T12:33:02.442Z,32.50
2018-06-15T12:35:30.799Z,34.30
2018-06-15T12:37:59.271Z,37.60
2018-06-15T12:40:27.688Z,38.20
2018-06-15T12:42:56.038Z,37.90
2018-06-15T12:45:24.516Z,37.10
2018-06-15T12:47:52.915Z,36.40
2018-06-15T12:50:21.299Z,36.40
2018-06-15T12:52:49.681Z,37.60
2018-06-15T12:55:18.051Z,38.40
2018-06-15T12:57:46.440Z,38.50
2018-06-15T13:00:14.799Z,38.40
2018-06-15T13:02:43.257Z,38.20
2018-06-15T13:05:11.606Z,37.00
2018-06-15T13:07:40.188Z,35.60
2018-06-15T13:10:08.559Z,34.50
2018-06-15T13:12:36.930Z,34.90
2018-06-15T13:15:05.381Z,36.20
2018-06-15T13:17:33.785Z,38.70
2018-06-15T13:20:02.157Z,40.90
2018-06-15T13:22:30.658Z,41.30
2018-06-15T13:24:59.051Z,41.50
2018-06-15T13:27:27.439Z,41.60
2018-06-15T13:29:55.890Z,41.10
2018-06-15T13:32:24.336Z,40.30
2018-06-15T13:34:52.920Z,40.00
2018-06-15T13:37:21.298Z,41.70
2018-06-15T13:39:49.656Z,43.20
2018-06-15T13:42:18.023Z,43.90
2018-06-15T13:44:46.469Z,44.60
2018-06-15T13:47:14.810Z,45.00
2018-06-15T13:49:43.169Z,45.30
2018-06-15T13:52:11.557Z,44.30
2018-06-15T13:54:39.949Z,42.70
2018-06-15T13:57:08.323Z,40.90
2018-06-15T13:59:36.776Z,40.50
2018-06-15T14:02:05.672Z,40.90
2018-06-15T14:04:34.088Z,41.90
2018-06-15T14:07:02.584Z,42.30
2018-06-15T14:09:30.953Z,41.70
2018-06-15T14:11:59.400Z,41.20
2018-06-15T14:14:27.768Z,40.40
2018-06-15T14:16:56.166Z,40.00
2018-06-15T14:19:24.506Z,41.00
2018-06-15T14:21:53.087Z,41.60
2018-06-15T14:24:21.484Z,42.40
2018-06-15T14:26:49.878Z,43.30
2018-06-15T14:29:18.238Z,42.30
2018-06-15T14:31:46.607Z,40.90
2018-06-15T14:34:14.982Z,39.70
2018-06-15T14:36:43.348Z,39.50
2018-06-15T14:41:40.392Z,39.50
2018-06-15T14:44:08.844Z,38.70
2018-06-15T14:46:37.212Z,37.60
2018-06-15T14:49:05.702Z,36.60
2018-06-15T14:51:34.071Z,37.30
2018-06-15T14:54:02.451Z,38.70
2018-06-15T14:56:30.865Z,39.80
2018-06-15T14:58:59.241Z,39.70
2018-06-15T15:01:27.603Z,39.30
2018-06-15T15:03:56.087Z,39.10
2018-06-15T15:06:25.072Z,39.00
2018-06-15T15:08:53.476Z,39.10
2018-06-15T15:11:21.855Z,39.00
2018-06-15T15:13:50.224Z,38.60
2018-06-15T15:18:46.723Z,37.30
2018-06-15T15:21:15.075Z,37.20
2018-06-15T15:23:43.480Z,37.30
2018-06-15T15:26:11.999Z,36.90
2018-06-15T15:28:40.461Z,36.70
2018-06-15T15:31:08.829Z,36.90
2018-06-15T15:33:37.198Z,37.10
2018-06-15T15:36:05.691Z,37.10
2018-06-15T15:38:34.049Z,36.80
2018-06-15T15:41:02.409Z,36.50
2018-06-15T15:43:30.750Z,36.90
2018-06-15T15:45:59.226Z,37.20
2018-06-15T15:48:27.597Z,37.30
2018-06-15T15:50:55.954Z,38.10
2018-06-15T15:53:24.468Z,39.00
2018-06-15T15:55:52.839Z,39.70
2018-06-15T15:58:21.614Z,39.90
2018-06-15T16:00:50.023Z,39.90
2018-06-15T16:03:18.408Z,39.90
2018-06-15T16:05:46.781Z,40.00
2018-06-15T16:08:15.148Z,39.20
2018-06-15T16:10:43.556Z,38.40
2018-06-15T16:13:11.991Z,38.10
2018-06-15T16:15:40.367Z,37.80
2018-06-15T16:18:08.765Z,36.60
2018-06-15T16:20:37.131Z,35.50
2018-06-15T16:23:05.690Z,34.80
2018-06-15T16:25:34.056Z,34.90
2018-06-15T16:28:02.441Z,34.80
2018-06-15T16:30:30.796Z,34.80
2018-06-15T16:32:59.204Z,34.50
2018-06-15T16:35:27.606Z,34.20
2018-06-15T16:37:56.291Z,33.70
2018-06-15T16:40:24.712Z,33.00
2018-06-15T16:42:53.106Z,32.30
2018-06-15T16:45:21.484Z,31.60
2018-06-15T16:47:49.950Z,31.20
2018-06-15T16:50:18.324Z,31.30
2018-06-15T16:52:47.370Z,31.60
2018-06-15T16:55:15.797Z,31.30
2018-06-15T16:57:44.898Z,30.90
2018-06-15T17:00:13.308Z,30.60
2018-06-15T17:02:41.713Z,30.00
2018-06-15T17:05:10.435Z,29.50
2018-06-15T17:07:38.852Z,29.20
2018-06-15T17:10:07.218Z,29.10
2018-06-15T17:12:35.607Z,28.90
2018-06-15T17:15:03.972Z,28.70
2018-06-15T17:17:32.369Z,28.90
2018-06-15T17:20:00.859Z,29.20
2018-06-15T17:22:29.684Z,29.00
2018-06-15T17:24:58.072Z,28.80
2018-06-15T17:27:26.463Z,28.80
2018-06-15T17:29:54.870Z,28.90
2018-06-15T17:32:23.304Z,29.00
2018-06-15T17:34:51.656Z,29.30
2018-06-15T17:37:20.033Z,29.60
2018-06-15T17:39:48.418Z,29.60
2018-06-15T17:42:16.814Z,29.30
2018-06-15T17:44:45.276Z,28.90
2018-06-15T17:47:13.697Z,28.60
2018-06-15T17:49:42.069Z,28.10
2018-06-15T17:52:10.532Z,27.80
2018-06-15T17:54:38.908Z,27.40
2018-06-15T17:57:07.271Z,27.00
2018-06-15T17:59:35.729Z,26.60
2018-06-15T18:02:04.091Z,26.30
2018-06-15T18:04:32.465Z,26.00
2018-06-15T18:07:00.857Z,25.70
2018-06-15T18:09:29.221Z,25.40
2018-06-15T18:11:57.615Z,25.00
2018-06-15T18:14:26.088Z,24.60
2018-06-15T18:16:54.467Z,24.10
2018-06-15T18:19:22.857Z,23.80
2018-06-15T18:21:51.258Z,23.70
2018-06-15T18:24:19.585Z,23.70
2018-06-15T18:26:47.950Z,23.50
2018-06-15T18:29:16.310Z,23.30
2018-06-15T18:31:44.772Z,23.10
2018-06-15T18:34:13.146Z,22.80
2018-06-15T18:36:41.640Z,22.40
2018-06-15T18:39:12.660Z,22.10
2018-06-15T18:41:41.012Z,21.70
2018-06-15T18:44:09.630Z,21.40
2018-06-15T18:46:38.170Z,21.00
2018-06-15T18:49:06.622Z,20.70
2018-06-15T18:51:35.367Z,20.40
2018-06-15T18:54:03.888Z,20.10
2018-06-15T18:56:32.316Z,19.90
2018-06-15T18:59:00.680Z,19.70
2018-06-15T19:01:29.099Z,19.60
2018-06-15T19:03:57.537Z,19.50
2018-06-15T19:06:25.997Z,19.40
2018-06-15T19:08:54.385Z,19.40
2018-06-15T19:11:22.768Z,19.30
2018-06-15T19:13:51.346Z,19.30
2018-06-15T19:16:19.740Z,19.40
2018-06-15T19:18:48.133Z,19.30
2018-06-15T19:21:16.540Z,19.30
2018-06-15T19:23:44.944Z,19.20
2018-06-15T19:28:47.955Z,18.90
2018-06-15T19:31:16.415Z,18.60
2018-06-15T19:33:44.836Z,18.50
2018-06-15T19:36:13.209Z,18.40
2018-06-15T19:38:41.598Z,18.20
2018-06-15T19:41:09.957Z,18.10
2018-06-15T19:43:38.333Z,18.10
2018-06-15T19:46:06.694Z,18.10
2018-06-15T19:48:35.201Z,18.00
2018-06-15T19:51:03.688Z,18.00
2018-06-15T19:53:32.073Z,17.90
2018-06-15T19:56:00.474Z,17.90
2018-06-15T19:58:28.813Z,17.80
2018-06-15T20:03:25.276Z,17.80
2018-06-15T20:05:53.681Z,17.90
2018-06-15T20:08:22.043Z,17.90
2018-06-15T20:10:50.556Z,18.00
2018-06-15T20:13:18.976Z,18.10
2018-06-15T20:15:47.417Z,18.20
2018-06-15T20:18:15.813Z,18.30
2018-06-15T20:20:44.163Z,18.40
2018-06-15T20:23:12.524Z,18.40
2018-06-15T20:25:40.895Z,18.30
2018-06-15T20:28:09.264Z,18.20
2018-06-15T20:30:37.629Z,18.20
2018-06-15T20:33:06.059Z,18.20
2018-06-15T20:35:34.435Z,18.30
2018-06-15T20:38:02.810Z,18.30
2018-06-15T20:40:31.196Z,18.30
2018-06-15T20:42:59.737Z,18.30
2018-06-15T20:45:28.123Z,18.30
2018-06-15T20:47:56.512Z,18.30
2018-06-15T20:50:24.897Z,18.30
2018-06-15T20:52:53.267Z,18.20
2018-06-15T20:55:21.640Z,18.20
2018-06-15T20:57:50.115Z,18.20
2018-06-15T21:00:18.485Z,18.20
2018-06-15T21:02:46.909Z,18.20
2018-06-15T21:05:15.439Z,18.10
2018-06-15T21:07:43.836Z,18.00
2018-06-15T21:10:12.177Z,17.90
2018-06-15T21:12:40.533Z,17.80
2018-06-15T21:15:08.925Z,17.70
2018-06-15T21:17:37.306Z,17.60
2018-06-15T21:20:05.777Z,17.60
2018-06-15T21:22:34.153Z,17.60
2018-06-15T21:25:02.598Z,17.60
2018-06-15T21:27:30.993Z,17.60
2018-06-15T21:29:59.370Z,17.70
2018-06-15T21:32:27.729Z,17.90
2018-06-15T21:34:56.141Z,18.10
2018-06-15T21:37:24.509Z,18.10
2018-06-15T21:39:52.897Z,18.20
2018-06-15T21:42:21.219Z,18.10
2018-06-15T21:44:49.597Z,18.00
2018-06-15T21:47:17.953Z,17.90
2018-06-15T21:49:46.341Z,17.70
2018-06-15T21:52:14.739Z,17.80
2018-06-15T21:54:43.090Z,17.80
2018-06-15T21:57:11.430Z,17.90
2018-06-15T21:59:39.795Z,18.00
2018-06-15T22:02:08.235Z,18.10
2018-06-15T22:04:36.594Z,18.10
2018-06-15T22:07:04.983Z,18.10
2018-06-15T22:09:33.326Z,18.00
2018-06-15T22:12:01.719Z,18.00
2018-06-15T22:14:30.122Z,18.10
2018-06-15T22:16:58.485Z,18.10
2018-06-15T22:19:26.958Z,18.20
2018-06-15T22:21:55.370Z,18.30
2018-06-15T22:24:24.106Z,18.40
2018-06-15T22:26:52.566Z,18.40
2018-06-15T22:29:20.936Z,18.40
2018-06-15T22:31:49.549Z,18.40
2018-06-15T22:34:17.973Z,18.40
2018-06-15T22:36:46.351Z,18.40
2018-06-15T22:39:15.892Z,18.50
2018-06-15T22:41:44.355Z,18.50
2018-06-15T22:44:13.303Z,18.50
2018-06-15T22:46:42.530Z,18.50
2018-06-15T22:49:11.806Z,18.60
2018-06-15T22:51:40.944Z,18.60
2018-06-15T22:54:09.380Z,18.50
2018-06-15T22:56:37.810Z,18.50
2018-06-15T22:59:06.198Z,18.40
2018-06-15T23:01:34.565Z,18.40
2018-06-15T23:04:02.957Z,18.40
2018-06-15T23:06:31.325Z,18.40
2018-06-15T23:08:59.696Z,18.40
2018-06-15T23:11:28.072Z,18.40
2018-06-15T23:13:56.454Z,18.40
2018-06-15T23:16:24.850Z,18.50
2018-06-15T23:18:53.262Z,18.50
2018-06-15T23:21:21.601Z,18.60
2018-06-15T23:23:50.017Z,18.60
2018-06-15T23:26:18.388Z,18.50
2018-06-15T23:28:46.736Z,18.50
2018-06-15T23:31:15.087Z,18.50
2018-06-15T23:33:43.482Z,18.40
2018-06-15T23:36:11.891Z,18.40
2018-06-15T23:38:40.245Z,18.30
2018-06-15T23:41:08.629Z,18.20
2018-06-15T23:43:37.096Z,18.30
2018-06-15T23:46:05.515Z,18.30
2018-06-15T23:48:33.878Z,18.30
2018-06-15T23:51:02.340Z,18.30
2018-06-15T23:53:30.697Z,18.30
2018-06-15T23:55:59.080Z,18.30
2018-06-15T23:58:27.455Z,18.30
